sensor_id;sensor_type;location;lat;lon;timestamp;pressure;altitude;pressure_sealevel;temperature;humidity
59329;BME280;45100;46.926;7.452;2023-08-24T00:00:45;95395.43;;;25.63;64.83
59329;BME280;45100;46.926;7.452;2023-08-24T00:03:16;95393.20;;;25.59;64.85
59329;BME280;45100;46.926;7.452;2023-08-24T00:05:47;95390.31;;;25.52;64.98
59329;BME280;45100;46.926;7.452;2023-08-24T00:08:17;95385.11;;;25.44;65.22
59329;BME280;45100;46.926;7.452;2023-08-24T00:10:47;95385.77;;;25.40;64.89
59329;BME280;45100;46.926;7.452;2023-08-24T00:13:18;95385.38;;;25.39;64.72
59329;BME280;45100;46.926;7.452;2023-08-24T00:15:49;95375.73;;;25.40;64.63
59329;BME280;45100;46.926;7.452;2023-08-24T00:18:20;95374.16;;;25.43;64.44
59329;BME280;45100;46.926;7.452;2023-08-24T00:20:51;95369.55;;;25.44;64.06
59329;BME280;45100;46.926;7.452;2023-08-24T00:23:21;95370.38;;;25.44;63.92
59329;BME280;45100;46.926;7.452;2023-08-24T00:25:51;95367.31;;;25.45;64.02
59329;BME280;45100;46.926;7.452;2023-08-24T00:28:22;95367.47;;;25.45;63.89
59329;BME280;45100;46.926;7.452;2023-08-24T00:30:53;95365.70;;;25.43;63.92
59329;BME280;45100;46.926;7.452;2023-08-24T00:33:24;95365.94;;;25.41;63.98
59329;BME280;45100;46.926;7.452;2023-08-24T00:35:58;95366.30;;;25.40;64.12
59329;BME280;45100;46.926;7.452;2023-08-24T00:38:24;95368.24;;;25.38;64.15
59329;BME280;45100;46.926;7.452;2023-08-24T00:40:55;95374.15;;;25.38;64.31
59329;BME280;45100;46.926;7.452;2023-08-24T00:43:26;95372.33;;;25.39;64.28
59329;BME280;45100;46.926;7.452;2023-08-24T00:45:58;95374.05;;;25.43;64.53
59329;BME280;45100;46.926;7.452;2023-08-24T00:48:30;95372.97;;;25.46;64.47
59329;BME280;45100;46.926;7.452;2023-08-24T00:50:59;95371.20;;;25.46;64.38
59329;BME280;45100;46.926;7.452;2023-08-24T00:53:29;95365.92;;;25.45;64.33
59329;BME280;45100;46.926;7.452;2023-08-24T00:55:58;95361.91;;;25.43;64.44
59329;BME280;45100;46.926;7.452;2023-08-24T00:58:28;95362.69;;;25.42;64.50
59329;BME280;45100;46.926;7.452;2023-08-24T01:03:32;95364.19;;;25.35;64.64
59329;BME280;45100;46.926;7.452;2023-08-24T01:06:02;95362.70;;;25.33;64.67
59329;BME280;45100;46.926;7.452;2023-08-24T01:08:33;95363.56;;;25.32;64.65
59329;BME280;45100;46.926;7.452;2023-08-24T01:11:14;95362.67;;;25.30;64.74
59329;BME280;45100;46.926;7.452;2023-08-24T01:16:08;95361.53;;;25.24;65.31
59329;BME280;45100;46.926;7.452;2023-08-24T01:18:38;95359.88;;;25.17;65.86
59329;BME280;45100;46.926;7.452;2023-08-24T01:21:05;95355.70;;;25.09;66.44
59329;BME280;45100;46.926;7.452;2023-08-24T01:23:45;95349.64;;;25.03;66.33
59329;BME280;45100;46.926;7.452;2023-08-24T01:26:12;95344.66;;;24.98;66.40
59329;BME280;45100;46.926;7.452;2023-08-24T01:28:37;95338.55;;;24.93;66.04
59329;BME280;45100;46.926;7.452;2023-08-24T01:31:08;95335.15;;;24.87;66.43
59329;BME280;45100;46.926;7.452;2023-08-24T01:33:39;95334.98;;;24.84;66.38
59329;BME280;45100;46.926;7.452;2023-08-24T01:36:10;95337.36;;;24.79;66.33
59329;BME280;45100;46.926;7.452;2023-08-24T01:38:38;95337.00;;;24.75;66.44
59329;BME280;45100;46.926;7.452;2023-08-24T01:41:16;95337.28;;;24.70;66.48
59329;BME280;45100;46.926;7.452;2023-08-24T01:43:39;95339.80;;;24.65;66.48
59329;BME280;45100;46.926;7.452;2023-08-24T01:46:11;95337.95;;;24.62;66.74
59329;BME280;45100;46.926;7.452;2023-08-24T01:48:39;95331.05;;;24.59;66.99
59329;BME280;45100;46.926;7.452;2023-08-24T01:51:11;95330.31;;;24.55;67.15
59329;BME280;45100;46.926;7.452;2023-08-24T01:53:41;95325.06;;;24.50;67.20
59329;BME280;45100;46.926;7.452;2023-08-24T01:56:15;95325.92;;;24.44;67.36
59329;BME280;45100;46.926;7.452;2023-08-24T01:58:41;95328.36;;;24.39;67.44
59329;BME280;45100;46.926;7.452;2023-08-24T02:01:13;95332.86;;;24.35;67.58
59329;BME280;45100;46.926;7.452;2023-08-24T02:03:42;95333.83;;;24.31;67.82
59329;BME280;45100;46.926;7.452;2023-08-24T02:06:13;95331.98;;;24.27;67.85
59329;BME280;45100;46.926;7.452;2023-08-24T02:08:45;95330.41;;;24.25;67.61
59329;BME280;45100;46.926;7.452;2023-08-24T02:11:14;95330.64;;;24.20;67.55
59329;BME280;45100;46.926;7.452;2023-08-24T02:13:44;95331.28;;;24.17;67.06
59329;BME280;45100;46.926;7.452;2023-08-24T02:16:15;95326.50;;;24.16;66.08
59329;BME280;45100;46.926;7.452;2023-08-24T02:18:45;95324.03;;;24.14;65.77
59329;BME280;45100;46.926;7.452;2023-08-24T02:21:16;95321.35;;;24.11;66.65
59329;BME280;45100;46.926;7.452;2023-08-24T02:23:47;95325.56;;;24.08;67.06
59329;BME280;45100;46.926;7.452;2023-08-24T02:26:18;95324.17;;;24.03;67.11
59329;BME280;45100;46.926;7.452;2023-08-24T02:28:48;95319.88;;;24.02;66.72
59329;BME280;45100;46.926;7.452;2023-08-24T02:31:19;95318.53;;;24.00;66.58
59329;BME280;45100;46.926;7.452;2023-08-24T02:33:49;95309.25;;;23.97;66.34
59329;BME280;45100;46.926;7.452;2023-08-24T02:36:20;95308.66;;;23.97;66.63
59329;BME280;45100;46.926;7.452;2023-08-24T02:38:50;95308.04;;;23.96;65.89
59329;BME280;45100;46.926;7.452;2023-08-24T02:41:21;95300.42;;;23.92;66.12
59329;BME280;45100;46.926;7.452;2023-08-24T02:43:52;95303.03;;;23.88;66.31
59329;BME280;45100;46.926;7.452;2023-08-24T02:46:22;95304.37;;;23.86;66.50
59329;BME280;45100;46.926;7.452;2023-08-24T02:48:53;95306.03;;;23.83;66.67
59329;BME280;45100;46.926;7.452;2023-08-24T02:51:24;95307.75;;;23.80;66.84
59329;BME280;45100;46.926;7.452;2023-08-24T02:53:55;95305.30;;;23.77;67.11
59329;BME280;45100;46.926;7.452;2023-08-24T02:56:25;95299.33;;;23.74;67.39
59329;BME280;45100;46.926;7.452;2023-08-24T02:58:56;95294.98;;;23.73;67.22
59329;BME280;45100;46.926;7.452;2023-08-24T03:01:27;95291.41;;;23.71;67.90
59329;BME280;45100;46.926;7.452;2023-08-24T03:03:58;95289.97;;;23.69;68.22
59329;BME280;45100;46.926;7.452;2023-08-24T03:06:28;95297.53;;;23.67;68.58
59329;BME280;45100;46.926;7.452;2023-08-24T03:09:00;95295.88;;;23.63;68.31
59329;BME280;45100;46.926;7.452;2023-08-24T03:11:29;95296.41;;;23.56;67.99
59329;BME280;45100;46.926;7.452;2023-08-24T03:14:00;95294.92;;;23.49;68.03
59329;BME280;45100;46.926;7.452;2023-08-24T03:16:30;95298.73;;;23.44;68.60
59329;BME280;45100;46.926;7.452;2023-08-24T03:19:01;95299.12;;;23.44;68.62
59329;BME280;45100;46.926;7.452;2023-08-24T03:21:32;95297.71;;;23.40;68.57
59329;BME280;45100;46.926;7.452;2023-08-24T03:24:01;95299.75;;;23.36;68.68
59329;BME280;45100;46.926;7.452;2023-08-24T03:26:32;95298.24;;;23.33;68.80
59329;BME280;45100;46.926;7.452;2023-08-24T03:31:36;95292.80;;;23.33;68.68
59329;BME280;45100;46.926;7.452;2023-08-24T03:34:06;95285.44;;;23.34;68.40
59329;BME280;45100;46.926;7.452;2023-08-24T03:36:38;95288.49;;;23.35;68.03
59329;BME280;45100;46.926;7.452;2023-08-24T03:39:07;95290.64;;;23.35;68.04
59329;BME280;45100;46.926;7.452;2023-08-24T03:41:38;95294.88;;;23.36;67.91
59329;BME280;45100;46.926;7.452;2023-08-24T03:44:09;95295.15;;;23.34;67.74
59329;BME280;45100;46.926;7.452;2023-08-24T03:46:39;95292.95;;;23.32;68.03
59329;BME280;45100;46.926;7.452;2023-08-24T03:49:10;95298.09;;;23.30;67.08
59329;BME280;45100;46.926;7.452;2023-08-24T03:51:41;95299.45;;;23.27;67.14
59329;BME280;45100;46.926;7.452;2023-08-24T03:54:11;95301.17;;;23.23;66.96
59329;BME280;45100;46.926;7.452;2023-08-24T03:56:42;95302.19;;;23.19;67.03
59329;BME280;45100;46.926;7.452;2023-08-24T03:59:13;95303.20;;;23.15;67.24
59329;BME280;45100;46.926;7.452;2023-08-24T04:01:44;95299.62;;;23.13;67.30
59329;BME280;45100;46.926;7.452;2023-08-24T04:04:15;95300.00;;;23.11;67.89
59329;BME280;45100;46.926;7.452;2023-08-24T04:06:45;95300.45;;;23.11;68.23
59329;BME280;45100;46.926;7.452;2023-08-24T04:09:16;95298.98;;;23.13;67.81
59329;BME280;45100;46.926;7.452;2023-08-24T04:11:47;95299.58;;;23.13;67.03
59329;BME280;45100;46.926;7.452;2023-08-24T04:14:18;95296.34;;;23.10;67.24
59329;BME280;45100;46.926;7.452;2023-08-24T04:16:48;95292.89;;;23.09;67.12
59329;BME280;45100;46.926;7.452;2023-08-24T04:19:19;95297.23;;;23.07;67.17
59329;BME280;45100;46.926;7.452;2023-08-24T04:21:50;95297.85;;;23.03;67.31
59329;BME280;45100;46.926;7.452;2023-08-24T04:24:21;95302.23;;;23.02;67.52
59329;BME280;45100;46.926;7.452;2023-08-24T04:26:52;95304.12;;;22.98;67.49
59329;BME280;45100;46.926;7.452;2023-08-24T04:29:23;95309.56;;;22.95;67.77
59329;BME280;45100;46.926;7.452;2023-08-24T04:31:53;95313.66;;;22.93;67.39
59329;BME280;45100;46.926;7.452;2023-08-24T04:34:24;95314.61;;;22.91;67.33
59329;BME280;45100;46.926;7.452;2023-08-24T04:39:31;95315.14;;;22.90;67.95
59329;BME280;45100;46.926;7.452;2023-08-24T04:41:58;95320.09;;;22.91;67.56
59329;BME280;45100;46.926;7.452;2023-08-24T04:44:29;95326.29;;;22.92;67.28
59329;BME280;45100;46.926;7.452;2023-08-24T04:46:59;95325.14;;;22.92;67.27
59329;BME280;45100;46.926;7.452;2023-08-24T04:49:30;95325.81;;;22.91;67.80
59329;BME280;45100;46.926;7.452;2023-08-24T04:52:01;95325.26;;;22.91;68.36
59329;BME280;45100;46.926;7.452;2023-08-24T04:54:32;95324.53;;;22.93;68.57
59329;BME280;45100;46.926;7.452;2023-08-24T04:57:02;95323.98;;;22.92;68.56
59329;BME280;45100;46.926;7.452;2023-08-24T04:59:32;95319.42;;;22.93;68.14
59329;BME280;45100;46.926;7.452;2023-08-24T05:02:03;95319.33;;;22.94;67.87
59329;BME280;45100;46.926;7.452;2023-08-24T05:04:34;95322.47;;;22.95;67.69
59329;BME280;45100;46.926;7.452;2023-08-24T05:07:04;95324.06;;;22.98;67.39
59329;BME280;45100;46.926;7.452;2023-08-24T05:09:35;95327.84;;;23.01;66.85
59329;BME280;45100;46.926;7.452;2023-08-24T05:12:06;95325.92;;;23.03;66.71
59329;BME280;45100;46.926;7.452;2023-08-24T05:14:36;95329.03;;;23.04;67.09
59329;BME280;45100;46.926;7.452;2023-08-24T05:17:07;95331.34;;;23.04;67.21
59329;BME280;45100;46.926;7.452;2023-08-24T05:19:38;95331.85;;;23.06;67.67
59329;BME280;45100;46.926;7.452;2023-08-24T05:22:09;95327.70;;;23.08;67.55
59329;BME280;45100;46.926;7.452;2023-08-24T05:24:39;95327.36;;;23.11;67.45
59329;BME280;45100;46.926;7.452;2023-08-24T05:27:10;95328.53;;;23.15;67.41
59329;BME280;45100;46.926;7.452;2023-08-24T05:29:41;95332.80;;;23.18;67.24
59329;BME280;45100;46.926;7.452;2023-08-24T05:32:12;95336.08;;;23.20;67.48
59329;BME280;45100;46.926;7.452;2023-08-24T05:34:43;95335.77;;;23.21;68.03
59329;BME280;45100;46.926;7.452;2023-08-24T05:37:13;95338.38;;;23.23;68.42
59329;BME280;45100;46.926;7.452;2023-08-24T05:39:44;95336.45;;;23.27;68.70
59329;BME280;45100;46.926;7.452;2023-08-24T05:42:15;95337.09;;;23.29;68.87
59329;BME280;45100;46.926;7.452;2023-08-24T05:44:46;95337.91;;;23.31;68.99
59329;BME280;45100;46.926;7.452;2023-08-24T05:47:16;95340.09;;;23.36;68.96
59329;BME280;45100;46.926;7.452;2023-08-24T05:49:47;95345.04;;;23.39;68.83
59329;BME280;45100;46.926;7.452;2023-08-24T05:52:18;95348.14;;;23.44;68.77
59329;BME280;45100;46.926;7.452;2023-08-24T05:54:49;95346.88;;;23.47;68.84
59329;BME280;45100;46.926;7.452;2023-08-24T05:57:20;95346.05;;;23.48;68.46
59329;BME280;45100;46.926;7.452;2023-08-24T05:59:50;95347.45;;;23.55;68.40
59329;BME280;45100;46.926;7.452;2023-08-24T06:02:21;95346.54;;;23.59;67.34
59329;BME280;45100;46.926;7.452;2023-08-24T06:04:52;95348.77;;;23.63;66.58
59329;BME280;45100;46.926;7.452;2023-08-24T06:07:23;95351.50;;;23.69;66.14
59329;BME280;45100;46.926;7.452;2023-08-24T06:09:53;95352.94;;;23.76;66.21
59329;BME280;45100;46.926;7.452;2023-08-24T06:12:23;95350.52;;;23.85;66.08
59329;BME280;45100;46.926;7.452;2023-08-24T06:14:54;95351.52;;;23.92;66.01
59329;BME280;45100;46.926;7.452;2023-08-24T06:17:24;95351.77;;;23.97;65.51
59329;BME280;45100;46.926;7.452;2023-08-24T06:19:55;95354.61;;;24.00;65.07
59329;BME280;45100;46.926;7.452;2023-08-24T06:22:26;95354.09;;;24.04;64.40
59329;BME280;45100;46.926;7.452;2023-08-24T06:25:00;95353.09;;;24.04;64.05
59329;BME280;45100;46.926;7.452;2023-08-24T06:27:27;95355.09;;;24.04;63.89
59329;BME280;45100;46.926;7.452;2023-08-24T06:32:31;95358.61;;;24.11;63.90
59329;BME280;45100;46.926;7.452;2023-08-24T06:35:02;95359.66;;;24.19;63.64
59329;BME280;45100;46.926;7.452;2023-08-24T06:37:32;95358.66;;;24.29;62.89
59329;BME280;45100;46.926;7.452;2023-08-24T06:40:06;95357.61;;;24.37;61.87
59329;BME280;45100;46.926;7.452;2023-08-24T06:42:34;95360.38;;;24.42;61.42
59329;BME280;45100;46.926;7.452;2023-08-24T06:45:05;95362.28;;;24.43;61.84
59329;BME280;45100;46.926;7.452;2023-08-24T06:47:35;95362.38;;;24.40;62.27
59329;BME280;45100;46.926;7.452;2023-08-24T06:50:06;95357.62;;;24.41;62.58
59329;BME280;45100;46.926;7.452;2023-08-24T06:52:36;95356.98;;;24.46;62.56
59329;BME280;45100;46.926;7.452;2023-08-24T06:55:10;95353.33;;;24.54;61.72
59329;BME280;45100;46.926;7.452;2023-08-24T07:00:16;95346.31;;;24.62;61.72
59329;BME280;45100;46.926;7.452;2023-08-24T07:02:41;95346.45;;;24.65;61.36
59329;BME280;45100;46.926;7.452;2023-08-24T07:05:13;95343.14;;;24.66;61.60
59329;BME280;45100;46.926;7.452;2023-08-24T07:07:45;95340.38;;;24.68;62.06
59329;BME280;45100;46.926;7.452;2023-08-24T07:10:13;95337.83;;;24.75;62.14
59329;BME280;45100;46.926;7.452;2023-08-24T07:12:46;95337.34;;;24.80;62.11
59329;BME280;45100;46.926;7.452;2023-08-24T07:15:14;95340.60;;;24.87;62.02
59329;BME280;45100;46.926;7.452;2023-08-24T07:20:18;95334.19;;;24.99;61.77
59329;BME280;45100;46.926;7.452;2023-08-24T07:22:51;95331.46;;;25.03;61.97
59329;BME280;45100;46.926;7.452;2023-08-24T07:25:18;95325.89;;;25.07;62.06
59329;BME280;45100;46.926;7.452;2023-08-24T07:27:49;95326.33;;;25.14;61.94
59329;BME280;45100;46.926;7.452;2023-08-24T07:30:20;95327.72;;;25.23;61.59
59329;BME280;45100;46.926;7.452;2023-08-24T07:32:51;95323.92;;;25.32;61.08
59329;BME280;45100;46.926;7.452;2023-08-24T07:35:22;95324.31;;;25.39;60.59
59329;BME280;45100;46.926;7.452;2023-08-24T07:37:53;95319.67;;;25.47;60.40
59329;BME280;45100;46.926;7.452;2023-08-24T07:40:24;95321.48;;;25.56;60.04
59329;BME280;45100;46.926;7.452;2023-08-24T07:42:57;95319.77;;;25.62;59.81
59329;BME280;45100;46.926;7.452;2023-08-24T07:45:24;95314.45;;;25.68;58.96
59329;BME280;45100;46.926;7.452;2023-08-24T07:47:54;95313.97;;;25.75;58.82
59329;BME280;45100;46.926;7.452;2023-08-24T07:50:24;95314.42;;;25.81;58.10
59329;BME280;45100;46.926;7.452;2023-08-24T07:52:55;95312.08;;;25.86;58.17
59329;BME280;45100;46.926;7.452;2023-08-24T07:55:26;95315.65;;;25.92;58.19
59329;BME280;45100;46.926;7.452;2023-08-24T07:57:56;95312.52;;;25.98;58.03
59329;BME280;45100;46.926;7.452;2023-08-24T08:00:26;95308.06;;;26.04;57.32
59329;BME280;45100;46.926;7.452;2023-08-24T08:02:57;95309.53;;;26.13;57.05
59329;BME280;45100;46.926;7.452;2023-08-24T08:05:28;95307.22;;;26.20;56.84
59329;BME280;45100;46.926;7.452;2023-08-24T08:07:59;95309.38;;;26.23;56.87
59329;BME280;45100;46.926;7.452;2023-08-24T08:10:30;95307.25;;;26.26;56.62
59329;BME280;45100;46.926;7.452;2023-08-24T08:13:00;95307.50;;;26.31;56.61
59329;BME280;45100;46.926;7.452;2023-08-24T08:15:31;95302.24;;;26.38;55.57
59329;BME280;45100;46.926;7.452;2023-08-24T08:18:02;95302.30;;;26.46;55.74
59329;BME280;45100;46.926;7.452;2023-08-24T08:20:32;95296.75;;;26.58;55.62
59329;BME280;45100;46.926;7.452;2023-08-24T08:23:03;95296.17;;;26.73;54.94
59329;BME280;45100;46.926;7.452;2023-08-24T08:25:33;95296.66;;;26.86;54.63
59329;BME280;45100;46.926;7.452;2023-08-24T08:28:03;95295.40;;;26.94;54.66
59329;BME280;45100;46.926;7.452;2023-08-24T08:30:33;95292.41;;;27.03;54.20
59329;BME280;45100;46.926;7.452;2023-08-24T08:33:04;95288.56;;;27.12;54.19
59329;BME280;45100;46.926;7.452;2023-08-24T08:35:35;95282.78;;;27.17;53.90
59329;BME280;45100;46.926;7.452;2023-08-24T08:38:06;95285.75;;;27.23;53.84
59329;BME280;45100;46.926;7.452;2023-08-24T08:40:37;95288.91;;;27.31;53.52
59329;BME280;45100;46.926;7.452;2023-08-24T08:43:06;95294.04;;;27.43;53.08
59329;BME280;45100;46.926;7.452;2023-08-24T08:45:36;95295.59;;;27.57;52.59
59329;BME280;45100;46.926;7.452;2023-08-24T08:48:08;95297.97;;;27.71;51.95
59329;BME280;45100;46.926;7.452;2023-08-24T08:50:38;95295.20;;;27.87;51.28
59329;BME280;45100;46.926;7.452;2023-08-24T08:53:08;95288.12;;;28.02;50.02
59329;BME280;45100;46.926;7.452;2023-08-24T08:55:39;95290.73;;;28.16;49.81
59329;BME280;45100;46.926;7.452;2023-08-24T08:58:10;95285.20;;;28.30;50.18
59329;BME280;45100;46.926;7.452;2023-08-24T09:03:17;95288.42;;;28.57;48.33
59329;BME280;45100;46.926;7.452;2023-08-24T09:05:48;95283.02;;;28.64;47.33
59329;BME280;45100;46.926;7.452;2023-08-24T09:08:18;95280.70;;;28.74;46.94
59329;BME280;45100;46.926;7.452;2023-08-24T09:10:46;95281.22;;;28.87;45.99
59329;BME280;45100;46.926;7.452;2023-08-24T09:13:17;95281.17;;;29.02;45.87
59329;BME280;45100;46.926;7.452;2023-08-24T09:15:51;95276.22;;;29.21;45.27
59329;BME280;45100;46.926;7.452;2023-08-24T09:18:18;95273.19;;;29.38;44.46
59329;BME280;45100;46.926;7.452;2023-08-24T09:20:48;95268.50;;;29.53;43.74
59329;BME280;45100;46.926;7.452;2023-08-24T09:23:20;95265.91;;;29.66;42.97
59329;BME280;45100;46.926;7.452;2023-08-24T09:25:50;95259.99;;;29.72;42.84
59329;BME280;45100;46.926;7.452;2023-08-24T09:28:23;95258.85;;;29.79;42.70
59329;BME280;45100;46.926;7.452;2023-08-24T09:30:54;95254.42;;;29.82;42.74
59329;BME280;45100;46.926;7.452;2023-08-24T09:33:26;95254.36;;;29.88;43.00
59329;BME280;45100;46.926;7.452;2023-08-24T09:35:54;95248.89;;;29.96;42.68
59329;BME280;45100;46.926;7.452;2023-08-24T09:38:24;95250.69;;;30.04;42.64
59329;BME280;45100;46.926;7.452;2023-08-24T09:40:54;95246.99;;;30.15;42.31
59329;BME280;45100;46.926;7.452;2023-08-24T09:43:24;95248.03;;;30.32;42.08
59329;BME280;45100;46.926;7.452;2023-08-24T09:45:56;95239.69;;;30.54;41.46
59329;BME280;45100;46.926;7.452;2023-08-24T09:48:26;95235.06;;;30.74;40.85
59329;BME280;45100;46.926;7.452;2023-08-24T09:50:57;95237.47;;;30.87;38.23
59329;BME280;45100;46.926;7.452;2023-08-24T09:56:02;95229.59;;;30.90;38.39
59329;BME280;45100;46.926;7.452;2023-08-24T09:58:32;95226.27;;;30.89;38.15
59329;BME280;45100;46.926;7.452;2023-08-24T10:01:03;95222.77;;;30.93;38.89
59329;BME280;45100;46.926;7.452;2023-08-24T10:03:33;95225.25;;;31.06;37.91
59329;BME280;45100;46.926;7.452;2023-08-24T10:06:05;95217.88;;;31.17;38.20
59329;BME280;45100;46.926;7.452;2023-08-24T10:08:36;95218.84;;;31.21;37.92
59329;BME280;45100;46.926;7.452;2023-08-24T10:11:06;95212.23;;;31.24;37.99
59329;BME280;45100;46.926;7.452;2023-08-24T10:16:07;95200.53;;;31.37;37.64
59329;BME280;45100;46.926;7.452;2023-08-24T10:18:37;95198.05;;;31.41;37.30
59329;BME280;45100;46.926;7.452;2023-08-24T10:23:39;95194.22;;;31.48;37.51
59329;BME280;45100;46.926;7.452;2023-08-24T10:28:43;95187.94;;;31.59;37.11
59329;BME280;45100;46.926;7.452;2023-08-24T10:31:13;95189.59;;;31.74;36.90
59329;BME280;45100;46.926;7.452;2023-08-24T10:36:19;95178.23;;;32.01;36.70
59329;BME280;45100;46.926;7.452;2023-08-24T10:38:48;95178.19;;;32.22;36.05
59329;BME280;45100;46.926;7.452;2023-08-24T10:41:19;95170.52;;;32.38;35.71
59329;BME280;45100;46.926;7.452;2023-08-24T10:43:49;95165.95;;;32.43;35.92
59329;BME280;45100;46.926;7.452;2023-08-24T10:46:20;95157.66;;;32.46;35.82
59329;BME280;45100;46.926;7.452;2023-08-24T10:48:57;95154.92;;;32.54;35.68
59329;BME280;45100;46.926;7.452;2023-08-24T10:51:23;95146.12;;;32.61;35.79
59329;BME280;45100;46.926;7.452;2023-08-24T10:53:55;95145.39;;;32.69;35.90
59329;BME280;45100;46.926;7.452;2023-08-24T10:56:36;95143.67;;;32.81;35.57
59329;BME280;45100;46.926;7.452;2023-08-24T11:01:24;95136.80;;;33.02;35.42
59329;BME280;45100;46.926;7.452;2023-08-24T11:03:56;95130.19;;;33.12;34.74
59329;BME280;45100;46.926;7.452;2023-08-24T11:09:07;95129.48;;;33.18;34.09
59329;BME280;45100;46.926;7.452;2023-08-24T11:11:27;95126.85;;;33.09;34.10
59329;BME280;45100;46.926;7.452;2023-08-24T11:14:19;95125.59;;;33.03;34.61
59329;BME280;45100;46.926;7.452;2023-08-24T11:16:46;95123.58;;;32.96;34.57
59329;BME280;45100;46.926;7.452;2023-08-24T11:18:58;95114.62;;;32.98;34.83
59329;BME280;45100;46.926;7.452;2023-08-24T11:21:29;95119.09;;;33.04;34.97
59329;BME280;45100;46.926;7.452;2023-08-24T11:24:00;95117.98;;;33.15;34.54
59329;BME280;45100;46.926;7.452;2023-08-24T11:26:30;95116.48;;;33.24;34.10
59329;BME280;45100;46.926;7.452;2023-08-24T11:29:04;95109.23;;;33.25;33.93
59329;BME280;45100;46.926;7.452;2023-08-24T11:31:32;95108.23;;;33.29;34.12
59329;BME280;45100;46.926;7.452;2023-08-24T11:34:03;95108.37;;;33.35;34.12
59329;BME280;45100;46.926;7.452;2023-08-24T11:36:46;95106.12;;;33.44;33.84
59329;BME280;45100;46.926;7.452;2023-08-24T11:39:03;95099.68;;;33.56;33.14
59329;BME280;45100;46.926;7.452;2023-08-24T11:41:33;95100.39;;;33.66;32.80
59329;BME280;45100;46.926;7.452;2023-08-24T11:44:04;95100.37;;;33.74;33.15
59329;BME280;45100;46.926;7.452;2023-08-24T11:46:36;95100.92;;;33.83;33.58
59329;BME280;45100;46.926;7.452;2023-08-24T11:49:05;95099.03;;;33.93;33.34
59329;BME280;45100;46.926;7.452;2023-08-24T11:51:36;95099.20;;;34.02;32.97
59329;BME280;45100;46.926;7.452;2023-08-24T11:54:07;95096.27;;;34.06;32.91
59329;BME280;45100;46.926;7.452;2023-08-24T11:56:43;95093.95;;;34.11;33.13
59329;BME280;45100;46.926;7.452;2023-08-24T11:59:12;95097.57;;;34.14;33.38
59329;BME280;45100;46.926;7.452;2023-08-24T12:01:41;95091.03;;;34.19;32.97
59329;BME280;45100;46.926;7.452;2023-08-24T12:04:09;95085.27;;;34.25;32.54
59329;BME280;45100;46.926;7.452;2023-08-24T12:06:41;95082.50;;;34.32;32.45
59329;BME280;45100;46.926;7.452;2023-08-24T12:09:11;95086.23;;;34.40;32.04
59329;BME280;45100;46.926;7.452;2023-08-24T12:11:41;95086.80;;;34.50;32.03
59329;BME280;45100;46.926;7.452;2023-08-24T12:14:17;95080.34;;;34.60;31.91
59329;BME280;45100;46.926;7.452;2023-08-24T12:16:42;95075.28;;;34.69;31.89
59329;BME280;45100;46.926;7.452;2023-08-24T12:19:14;95073.47;;;34.77;31.74
59329;BME280;45100;46.926;7.452;2023-08-24T12:21:44;95071.14;;;34.78;31.83
59329;BME280;45100;46.926;7.452;2023-08-24T12:24:14;95069.59;;;34.79;31.89
59329;BME280;45100;46.926;7.452;2023-08-24T12:26:56;95065.23;;;34.78;32.16
59329;BME280;45100;46.926;7.452;2023-08-24T12:29:18;95057.08;;;34.79;32.41
59329;BME280;45100;46.926;7.452;2023-08-24T12:31:46;95055.80;;;34.80;32.70
59329;BME280;45100;46.926;7.452;2023-08-24T12:34:17;95056.79;;;34.78;32.55
59329;BME280;45100;46.926;7.452;2023-08-24T12:36:48;95050.33;;;34.79;32.52
59329;BME280;45100;46.926;7.452;2023-08-24T12:39:19;95045.43;;;34.78;32.47
59329;BME280;45100;46.926;7.452;2023-08-24T12:41:48;95035.18;;;34.79;33.10
59329;BME280;45100;46.926;7.452;2023-08-24T12:44:19;95033.96;;;34.88;32.97
59329;BME280;45100;46.926;7.452;2023-08-24T12:46:49;95026.20;;;35.04;32.45
59329;BME280;45100;46.926;7.452;2023-08-24T12:49:20;95025.25;;;35.18;32.20
59329;BME280;45100;46.926;7.452;2023-08-24T12:51:50;95022.78;;;35.29;32.50
59329;BME280;45100;46.926;7.452;2023-08-24T12:54:22;95016.28;;;35.39;32.24
59329;BME280;45100;46.926;7.452;2023-08-24T12:56:51;95016.77;;;35.48;32.12
59329;BME280;45100;46.926;7.452;2023-08-24T12:59:23;95002.45;;;35.45;31.90
59329;BME280;45100;46.926;7.452;2023-08-24T13:01:53;95001.91;;;35.37;32.17
59329;BME280;45100;46.926;7.452;2023-08-24T13:04:23;95003.30;;;35.34;32.37
59329;BME280;45100;46.926;7.452;2023-08-24T13:06:54;94997.59;;;35.39;32.51
59329;BME280;45100;46.926;7.452;2023-08-24T13:09:24;94993.16;;;35.53;32.29
59329;BME280;45100;46.926;7.452;2023-08-24T13:11:55;94996.53;;;35.67;32.14
59329;BME280;45100;46.926;7.452;2023-08-24T13:17:00;94994.42;;;35.58;32.04
59329;BME280;45100;46.926;7.452;2023-08-24T13:19:30;94992.69;;;35.36;32.53
59329;BME280;45100;46.926;7.452;2023-08-24T13:22:01;94991.68;;;35.12;33.23
59329;BME280;45100;46.926;7.452;2023-08-24T13:24:31;94990.69;;;34.95;33.80
59329;BME280;45100;46.926;7.452;2023-08-24T13:27:02;94983.42;;;34.80;33.85
59329;BME280;45100;46.926;7.452;2023-08-24T13:29:32;94977.08;;;34.69;34.22
59329;BME280;45100;46.926;7.452;2023-08-24T13:32:03;94975.64;;;34.64;34.83
59329;BME280;45100;46.926;7.452;2023-08-24T13:34:33;94968.65;;;34.63;35.03
59329;BME280;45100;46.926;7.452;2023-08-24T13:37:05;94959.70;;;34.61;34.64
59329;BME280;45100;46.926;7.452;2023-08-24T13:39:34;94955.02;;;34.59;36.16
59329;BME280;45100;46.926;7.452;2023-08-24T13:42:05;94957.69;;;34.58;37.03
59329;BME280;45100;46.926;7.452;2023-08-24T13:44:36;94957.29;;;34.56;37.26
59329;BME280;45100;46.926;7.452;2023-08-24T13:47:07;94960.12;;;34.52;37.37
59329;BME280;45100;46.926;7.452;2023-08-24T13:49:38;94956.03;;;34.47;36.30
59329;BME280;45100;46.926;7.452;2023-08-24T13:52:08;94952.20;;;34.42;37.09
59329;BME280;45100;46.926;7.452;2023-08-24T13:54:38;94942.20;;;34.35;34.54
59329;BME280;45100;46.926;7.452;2023-08-24T13:57:09;94932.62;;;34.28;35.82